Buoy 47562

sailwx.info

Track history (hours):
 
Tides and Currents Weather Stations Pressure Air Temp Water Temp Dewpoint Dewpoint Depression Visibility Wind Speed Wind Dir Waves Ship Positions

Drifting buoy 47562

Last reported at 2017-Dec-05 17:00 UTC. Time now 2017-Dec-11 23:06 UTC.
Position N 59°57' W 001°16'.

Barometer 1011.9 mb
Water temperature 9.0 ° C

Date/timePositionNaut miles runAvg speedWind from/ knotsBaromVisibWave heightAir tempDewpointWater temp
2017-Dec-05 17:00N 59°57' W 001°16'0 0.0 1011.9 9.0
2017-Dec-05 16:00N 59°57' W 001°16'0 0.0 1012.5 9.1
2017-Dec-05 15:00N 59°57' W 001°16'0 0.0 1013.1 9.3
2017-Dec-05 14:00N 59°57' W 001°16'0 0.0 1013.8 9.4
2017-Dec-05 13:00N 59°57' W 001°16'0 0.0 1014.6 9.6
2017-Dec-05 12:00N 59°57' W 001°16'0 0.0 1015.1 9.5
2017-Dec-05 11:00N 59°57' W 001°16'0 0.0 1015.4 9.5
2017-Dec-05 10:00N 59°57' W 001°16'0 0.0 1015.2 9.1
2017-Dec-05 09:00N 59°57' W 001°16'0 0.0 1015.1 9.0
2017-Dec-05 08:00N 59°57' W 001°16'0 0.0 1015.4 9.0
2017-Dec-05 07:00N 59°57' W 001°16'0 0.0 1015.7 9.0
2017-Dec-05 06:00N 59°57' W 001°16'0 0.0 1016.0 8.7
2017-Dec-05 05:00N 59°57' W 001°16'0 0.0 1016.4 8.6
2017-Dec-05 04:00N 59°57' W 001°16'0 0.0 1017.2 8.8
2017-Dec-05 03:00N 59°57' W 001°16'0 0.0 1017.9 8.8
2017-Dec-05 02:00N 59°57' W 001°16'0 0.0 1018.3 8.6
2017-Dec-05 01:00N 59°57' W 001°16'0 0.0 1018.9 8.4
2017-Dec-05 00:00N 59°57' W 001°16'0 0.0 1019.5 8.6
2017-Dec-04 23:00N 59°57' W 001°16'0 0.0 1019.7 8.5
2017-Dec-04 22:00N 59°57' W 001°16'0 0.0 1020.2 8.4
2017-Dec-04 19:00N 59°57' W 001°16'0 0.0 1020.6 7.9
2017-Dec-04 18:00N 59°57' W 001°16'0 0.0 1020.3 7.7
2017-Dec-04 17:00N 59°57' W 001°16'0 0.0 1020.4 7.6
2017-Dec-04 16:00N 59°57' W 001°16'0 0.0 1020.3 7.2
2017-Dec-04 15:00N 59°57' W 001°16'0 0.0 1020.2 7.9
2017-Dec-04 14:00N 59°57' W 001°16'0 0.0 1020.0 8.4
2017-Dec-04 13:00N 59°57' W 001°16'0 0.0 1020.6 8.5
2017-Dec-04 12:00N 59°57' W 001°16'0 0.0 1021.0 8.2
2017-Dec-04 11:00N 59°57' W 001°16'0 0.0 1021.2 8.1
2017-Dec-04 10:00N 59°57' W 001°16'0 0.0 1020.8 7.8
2017-Dec-04 09:00N 59°57' W 001°16'0 0.0 1021.0 8.0
2017-Dec-04 08:00N 59°57' W 001°16'0 0.0 1021.0 8.1
2017-Dec-04 07:00N 59°57' W 001°16'0 0.0 1021.0 7.2
2017-Dec-04 06:00N 59°57' W 001°16'0 0.0 1021.0 7.0
2017-Dec-04 05:00N 59°57' W 001°16'0 0.0 1021.4 6.6
2017-Dec-04 04:00N 59°57' W 001°16'0 0.0 1021.8 6.2
2017-Dec-04 03:00N 59°57' W 001°16'0 0.0 1020.9 4.2
2017-Dec-04 02:00N 59°57' W 001°16'0 0.0 1021.5 4.4
2017-Dec-04 01:00N 59°57' W 001°16'0 0.0 1021.5 4.6
2017-Dec-04 00:00N 59°57' W 001°16'0 0.0 1021.8 4.9
2017-Dec-03 23:00N 59°57' W 001°16'0 0.0 1022.2 4.7
2017-Dec-03 22:00N 59°57' W 001°16'0 0.0 1020.7 4.0
2017-Dec-03 21:00N 59°57' W 001°16'0 0.0 1021.6 4.7
2017-Dec-03 20:00N 59°57' W 001°16'0 0.0 1020.7 3.2
2017-Dec-03 19:00N 59°57' W 001°16'0 0.0 1021.0 4.5
2017-Dec-03 18:00N 59°57' W 001°16'0 0.0 1021.3 4.5
2017-Dec-03 17:00N 59°57' W 001°16'0 0.0 1020.3 3.6
2017-Dec-03 16:00N 59°57' W 001°16'0 0.0 1020.4 4.3
2017-Dec-03 15:00N 59°57' W 001°16'0 0.0 1019.6 3.6
2017-Dec-03 14:00N 59°57' W 001°16'0 0.0 1019.5 4.9
2017-Dec-03 13:00N 59°57' W 001°16'0 0.0 1019.4 6.1
2017-Dec-03 12:00N 59°57' W 001°16'0 0.0 1019.6 6.1
2017-Dec-03 11:00N 59°57' W 001°16'0 0.0 1019.4 4.8
2017-Dec-03 10:00N 59°57' W 001°16'0 0.0 1018.3 5.4
2017-Dec-03 09:00N 59°57' W 001°16'0 0.0 1017.8 5.8
2017-Dec-03 08:00N 59°57' W 001°16'0 0.0 1017.6 5.3
2017-Dec-03 07:00N 59°57' W 001°16'0 0.0 1017.3 6.6
2017-Dec-03 06:00N 59°57' W 001°16'0 0.0 1016.5 5.5
2017-Dec-03 05:00N 59°57' W 001°16'0 0.0 1016.3 5.2
2017-Dec-03 04:00N 59°57' W 001°16'0 0.0 1016.0 5.6
2017-Dec-03 03:00N 59°57' W 001°16'0 0.0 1015.6 5.9
2017-Dec-03 02:00N 59°57' W 001°16'0 0.0 1015.5 5.2
2017-Dec-03 01:00N 59°57' W 001°16'0 0.0 1015.2 4.8
2017-Dec-03 00:00N 59°57' W 001°16'0 0.0 1014.7 4.9
2017-Dec-02 23:00N 59°57' W 001°16'0 0.0 1014.3 5.8
2017-Dec-02 22:00N 59°57' W 001°16'0 0.0 1014.1 6.1
2017-Dec-02 21:00N 59°57' W 001°16'0 0.0 1014.1 6.0
2017-Dec-02 20:00N 59°57' W 001°16'0 0.0 1013.7 6.6
2017-Dec-02 19:00N 59°57' W 001°16'0 0.0 1013.9 7.1
2017-Dec-02 18:00N 59°57' W 001°16'0 0.0 1013.8 7.1
2017-Dec-02 17:00N 59°57' W 001°16'0 0.0 1013.5 7.1
2017-Dec-02 16:00N 59°57' W 001°16'0 0.0 1013.2 7.2
2017-Dec-02 15:00N 59°57' W 001°16'0 0.0 1013.0 7.5
2017-Dec-02 14:00N 59°57' W 001°16'0 0.0 1012.8 7.5
2017-Dec-02 13:00N 59°57' W 001°16'0 0.0 1012.7 7.7
2017-Dec-02 12:00N 59°57' W 001°16'0 0.0 1013.4 8.7
2017-Dec-02 10:00N 59°57' W 001°16'0 0.0 1014.4 8.1
2017-Dec-02 09:00N 59°57' W 001°16'0 0.0 1014.7 8.0
2017-Dec-02 08:00N 59°57' W 001°16'0 0.0 1014.9 7.7
2017-Dec-02 07:00N 59°57' W 001°16'0 0.0 1015.1 7.7
2017-Dec-02 06:00N 59°57' W 001°16'0 0.0 1015.2 7.6
2017-Dec-02 05:00N 59°57' W 001°16'0 0.0 1015.5 7.6
2017-Dec-02 04:00N 59°57' W 001°16'0 0.0 1015.8 7.7
2017-Dec-02 03:00N 59°57' W 001°16'0 0.0 1016.6 8.0
2017-Dec-02 02:00N 59°57' W 001°16'0 0.0 1017.0 7.9
2017-Dec-02 01:00N 59°57' W 001°16'0 0.0 1017.2 7.8
2017-Dec-02 00:00N 59°57' W 001°16'0 0.0 1017.6 7.7
2017-Dec-01 23:00N 59°57' W 001°16'0 0.0 1017.9 7.6
2017-Dec-01 22:00N 59°57' W 001°16'0 0.0 1018.1 7.0
2017-Dec-01 21:00N 59°57' W 001°16'0 0.0 1018.5 6.6
2017-Dec-01 20:00N 59°57' W 001°16'0 0.0 1018.6 6.2
2017-Dec-01 19:00N 59°57' W 001°16'0 0.0 1019.0 6.1
2017-Dec-01 18:00N 59°57' W 001°16'0 0.0 1019.2 5.9
2017-Dec-01 17:00N 59°57' W 001°16'0 0.0 1019.3 6.0
2017-Dec-01 16:00N 59°57' W 001°16'0 0.0 1019.1 5.7
2017-Dec-01 15:00N 59°57' W 001°16'0 0.0 1019.2 5.8
2017-Dec-01 14:00N 59°57' W 001°16'0 0.0 1020.5 5.8
2017-Dec-01 13:00N 59°57' W 001°16'0 0.0 1020.6 4.6
2017-Dec-01 12:00N 59°57' W 001°16'0 0.0 1021.5 3.5
2017-Dec-01 11:00N 59°57' W 001°16'0 0.0 1022.6 3.0
2017-Dec-01 10:00N 59°57' W 001°16'0 0.0 1023.1 2.2
2017-Dec-01 09:00N 59°57' W 001°16'0 0.0 1023.7 1.8
2017-Dec-01 08:00N 59°57' W 001°16'0 0.0 1023.9 1.6
2017-Dec-01 07:00N 59°57' W 001°16'0 0.0 1023.6 1.2
2017-Dec-01 06:00N 59°57' W 001°16'0 0.0 1023.2 0.7
2017-Dec-01 05:00N 59°57' W 001°16'0 0.0 1023.9 0.8
2017-Dec-01 04:00N 59°57' W 001°16'0 0.0 1023.1 0.6
2017-Dec-01 03:00N 59°57' W 001°16'0 0.0 1023.2 0.8
2017-Dec-01 02:00N 59°57' W 001°16'0 0.0 1023.4 1.2
2017-Dec-01 01:00N 59°57' W 001°16'0 0.0 1023.0 1.2
2017-Dec-01 00:00N 59°57' W 001°16'0 0.0 1022.3 1.0
2017-Nov-30 23:00N 59°57' W 001°16'0 0.0 1022.1 1.2
2017-Nov-30 22:00N 59°57' W 001°16'0 0.0 1021.5 1.2
2017-Nov-30 21:00N 59°57' W 001°16'0 0.0 1021.4 1.4
2017-Nov-30 20:00N 59°57' W 001°16'0 0.0 1020.5 1.6
2017-Nov-30 19:00N 59°57' W 001°16'0 0.0 1020.1 1.5
2017-Nov-30 18:00N 59°57' W 001°16'0 0.0 1019.6 1.6
2017-Nov-30 17:00N 59°57' W 001°16'0 0.0 1018.3 1.4
2017-Nov-30 16:00N 59°57' W 001°16'0 0.0 1017.7 1.5
2017-Nov-30 15:00N 59°57' W 001°16'0 0.0 1017.0 1.4
2017-Nov-30 14:00N 59°57' W 001°16'0 0.0 1016.8 1.8
2017-Nov-30 13:00N 59°57' W 001°16'0 0.0 1015.6 1.6
2017-Nov-30 12:00N 59°57' W 001°16'0 0.0 1015.9 1.6
2017-Nov-30 11:00N 59°57' W 001°16'0 0.0 1015.0 1.0
2017-Nov-30 10:00N 59°57' W 001°16'0 0.0 1015.2 1.3
2017-Nov-30 09:00N 59°57' W 001°16'0 0.0 1013.6 0.5
2017-Nov-30 07:00N 59°57' W 001°16'0 0.0 1012.6 0.4
2017-Nov-30 06:00N 59°57' W 001°16'0 0.0 1012.4 0.6
2017-Nov-30 05:00N 59°57' W 001°16'0 0.0 1012.4 0.8
2017-Nov-30 04:00N 59°57' W 001°16'0 0.0 1012.2 0.4
2017-Nov-30 03:00N 59°57' W 001°16'0 0.0 1011.8 0.1
2017-Nov-30 02:00N 59°57' W 001°16'0 0.0 1011.5 -0.2
2017-Nov-30 01:00N 59°57' W 001°16'0 0.0 1012.3 -0.0
2017-Nov-30 00:00N 59°57' W 001°16'0 0.0 1011.7 -0.1
2017-Nov-29 23:00N 59°57' W 001°16'0 0.0 1012.1 -0.0
2017-Nov-29 22:00N 59°57' W 001°16'0 0.0 1012.3 0.1
2017-Nov-29 21:00N 59°57' W 001°16'0 0.0 1012.7 0.5
2017-Nov-29 20:00N 59°57' W 001°16'0 0.0 1012.2 0.4
2017-Nov-29 19:00N 59°57' W 001°16'0 0.0 1011.9 0.3
2017-Nov-29 18:00N 59°57' W 001°16'0 0.0 1012.3 0.6
2017-Nov-29 17:00N 59°57' W 001°16'0 0.0 1012.3 0.9
2017-Nov-29 16:00N 59°57' W 001°16'0 0.0 1012.1 1.0
2017-Nov-29 15:00N 59°57' W 001°16'0 0.0 1012.0 1.3
2017-Nov-29 14:00N 59°57' W 001°16'0 0.0 1012.3 1.5
2017-Nov-29 13:00N 59°57' W 001°16'0 0.0 1012.7 1.8
2017-Nov-29 12:00N 59°57' W 001°16'0 0.0 1012.7 1.4
2017-Nov-29 11:00N 59°57' W 001°16'0 0.0 1013.7 1.4
2017-Nov-29 10:00N 59°57' W 001°16'0 0.0 1013.7 1.3
2017-Nov-29 09:00N 59°57' W 001°16'0 0.0 1013.2 1.0
2017-Nov-29 08:00N 59°57' W 001°16'0 0.0 1012.9 1.1
2017-Nov-29 07:00N 59°57' W 001°16'0 0.0 1012.8 1.3
2017-Nov-29 06:00N 59°57' W 001°16'0 0.0 1013.2 1.1
2017-Nov-29 05:00N 59°57' W 001°16'0 0.0 1013.6 1.6
2017-Nov-29 04:00N 59°57' W 001°16'0 0.0 1013.6 1.5
2017-Nov-29 03:00N 59°57' W 001°16'0 0.0 1013.0 1.6
2017-Nov-29 02:00N 59°57' W 001°16'0 0.0 1013.0 2.0
2017-Nov-29 01:00N 59°57' W 001°16'0 0.0 1013.9 2.5
2017-Nov-29 00:00N 59°57' W 001°16'0 0.0 1013.0 2.2
2017-Nov-28 23:00N 59°57' W 001°16'0 0.0 1012.9 2.6
2017-Nov-28 22:00N 59°57' W 001°16'0 0.0 1012.9 3.1
2017-Nov-28 21:00N 59°57' W 001°16'0 0.0 1012.5 3.1
2017-Nov-28 20:00N 59°57' W 001°16'0 0.0 1012.4 3.1
2017-Nov-28 19:00N 59°57' W 001°16'0 0.0 1011.9 3.2
2017-Nov-28 18:00N 59°57' W 001°16'0 0.0 1011.8 3.3
2017-Nov-28 17:00N 59°57' W 001°16'0 0.0 1011.5 3.1
2017-Nov-28 16:00N 59°57' W 001°16'0 0.0 1011.0 3.4
2017-Nov-28 15:00N 59°57' W 001°16'0 0.0 1010.9 4.1
2017-Nov-28 14:00N 59°57' W 001°16'0 0.0 1010.8 4.0
2017-Nov-28 13:00N 59°57' W 001°16'0 0.0 1010.5 4.0
2017-Nov-28 12:00N 59°57' W 001°16'0 0.0 1010.5 4.4
2017-Nov-28 11:00N 59°57' W 001°16'0 0.0 1009.8 4.1
2017-Nov-28 10:00N 59°57' W 001°16'0 0.0 1009.3 4.1
2017-Nov-28 09:00N 59°57' W 001°16'0 0.0 1009.1 4.8
2017-Nov-28 08:00N 59°57' W 001°16'0 0.0 1008.2 4.2
2017-Nov-28 07:00N 59°57' W 001°16'0 0.0 1007.7 4.3
2017-Nov-28 06:00N 59°57' W 001°16'0 0.0 1006.5 4.1
2017-Nov-28 05:00N 59°57' W 001°16'0 0.0 1006.0 3.9
2017-Nov-28 04:00N 59°57' W 001°16'0 0.0 1005.6 3.7
2017-Nov-28 03:00N 59°57' W 001°16'0 0.0 1005.3 3.4
2017-Nov-28 02:00N 59°57' W 001°16'0 0.0 1005.0 3.2
2017-Nov-28 01:00N 59°57' W 001°16'0 0.0 1004.6 3.4
2017-Nov-28 00:00N 59°57' W 001°16'0 0.0 1004.0 4.0
2017-Nov-27 23:00N 59°57' W 001°16'0 0.0 1003.4 4.0
2017-Nov-27 22:00N 59°57' W 001°16'0 0.0 1002.3 4.0
2017-Nov-27 21:00N 59°57' W 001°16'0 0.0 1001.9 3.0
2017-Nov-27 20:00N 59°57' W 001°16'0 0.0 1001.4 3.0
2017-Nov-27 19:00N 59°57' W 001°16'0 0.0 1001.0 3.3
2017-Nov-27 18:00N 59°57' W 001°16'0 0.0 1000.7 3.5
2017-Nov-27 17:00N 59°57' W 001°16'0 0.0 1000.1 3.8
2017-Nov-27 16:00N 59°57' W 001°16'0 0.0 999.7 3.6
2017-Nov-27 15:00N 59°57' W 001°16'0 0.0 999.1 4.2
2017-Nov-27 14:00N 59°57' W 001°16'0 0.0 998.4 4.2
2017-Nov-27 13:00N 59°57' W 001°16'0 0.0 997.7 4.8
2017-Nov-27 12:00N 59°57' W 001°16'0 0.0 997.1 5.2
2017-Nov-27 11:00N 59°57' W 001°16'0 0.0 996.8 4.6
2017-Nov-27 10:00N 59°57' W 001°16'0 0.0 996.4 4.7
2017-Nov-27 09:00N 59°57' W 001°16'0 0.0 996.3 4.5
2017-Nov-27 08:00N 59°57' W 001°16'0 0.0 996.4 4.5
2017-Nov-27 07:00N 59°57' W 001°16'0 0.0 996.3 4.4
2017-Nov-27 06:00N 59°57' W 001°16'0 0.0 996.5 4.3
2017-Nov-27 05:00N 59°57' W 001°16'0 0.0 997.4 3.8
2017-Nov-27 04:00N 59°57' W 001°16'0 0.0 998.4 3.1
2017-Nov-27 03:00N 59°57' W 001°16'0 0.0 999.7 2.7
2017-Nov-27 02:00N 59°57' W 001°16'0 0.0 1000.7 2.6
2017-Nov-27 01:00N 59°57' W 001°16'0 0.0 1001.9 2.1
2017-Nov-27 00:00N 59°57' W 001°16'0 0.0 1002.8 2.0
2017-Nov-26 23:00N 59°57' W 001°16'0 0.0 1003.8 1.8
2017-Nov-26 22:00N 59°57' W 001°16'0 0.0 1004.8 1.9
2017-Nov-26 21:00N 59°57' W 001°16'0 0.0 1005.9 2.7
2017-Nov-26 20:00N 59°57' W 001°16'0 0.0 1006.7 3.3
2017-Nov-26 19:00N 59°57' W 001°16'0 0.0 1007.1 3.0
2017-Nov-26 18:00N 59°57' W 001°16'0 0.0 1007.7 3.9
2017-Nov-26 17:00N 59°57' W 001°16'0 0.0 1008.0 4.0
2017-Nov-26 16:00N 59°57' W 001°16'0 0.0 1008.1 4.6
2017-Nov-26 15:00N 59°57' W 001°16'0 0.0 1008.0 4.8
2017-Nov-26 14:00N 59°57' W 001°16'0 0.0 1007.8 5.4
2017-Nov-26 13:00N 59°57' W 001°16'0 0.0 1007.7 5.9
2017-Nov-26 12:00N 59°57' W 001°16'0 0.0 1007.3 5.5
2017-Nov-26 11:00N 59°57' W 001°16'0 0.0 1006.6 5.5
2017-Nov-26 10:00N 59°57' W 001°16'0 0.0 1006.0 5.7
2017-Nov-26 09:00N 59°57' W 001°16'0 0.0 1005.2 5.8
2017-Nov-26 08:00N 59°57' W 001°16'0 0.0 1004.5 5.7
2017-Nov-26 07:00N 59°57' W 001°16'0 0.0 1003.9 6.1
2017-Nov-26 06:00N 59°57' W 001°16'0 0.0 1002.9 6.0
2017-Nov-26 05:00N 59°57' W 001°16'0 0.0 1002.3 6.0
2017-Nov-26 04:00N 59°57' W 001°16'0 0.0 1001.5 5.9
2017-Nov-26 03:00N 59°57' W 001°16'0 0.0 1001.1 6.0
2017-Nov-26 02:00N 59°57' W 001°16'0 0.0 1000.5 6.0
2017-Nov-26 01:00N 59°57' W 001°16'0 0.0 999.8 6.0
2017-Nov-26 00:00N 59°57' W 001°16'0 0.0 999.3 6.1
2017-Nov-25 23:00N 59°57' W 001°16'0 0.0 998.9 5.7
2017-Nov-25 22:00N 59°57' W 001°16'0 0.0 998.4 5.8
2017-Nov-25 21:00N 59°57' W 001°16'0 0.0 998.4 5.3
2017-Nov-25 20:00N 59°57' W 001°16'0 0.0 998.5 5.5
2017-Nov-25 19:00N 59°57' W 001°16'0 0.0 998.4 5.5
2017-Nov-25 18:00N 59°57' W 001°16'0 0.0 997.5 5.3
2017-Nov-25 17:00N 59°57' W 001°16'   996.6 5.4
Track history (hours):
 
Tides and Currents Weather Stations Pressure Air Temp Water Temp Dewpoint Dewpoint Depression Visibility Wind Speed Wind Dir Waves Ship Positions

Drifting buoy 47562

Last reported at 2017-Dec-05 17:00 UTC. Time now 2017-Dec-11 23:06 UTC.
Position N 59°57' W 001°16'.

Barometer 1011.9 mb
Water temperature 9.0 ° C

Date/timePositionNaut miles runAvg speedWind from/ knotsBaromVisibWave heightAir tempDewpointWater temp
2017-Dec-05 17:00N 59°57' W 001°16'0 0.0 1011.9 9.0
2017-Dec-05 16:00N 59°57' W 001°16'0 0.0 1012.5 9.1
2017-Dec-05 15:00N 59°57' W 001°16'0 0.0 1013.1 9.3
2017-Dec-05 14:00N 59°57' W 001°16'0 0.0 1013.8 9.4
2017-Dec-05 13:00N 59°57' W 001°16'0 0.0 1014.6 9.6
2017-Dec-05 12:00N 59°57' W 001°16'0 0.0 1015.1 9.5
2017-Dec-05 11:00N 59°57' W 001°16'0 0.0 1015.4 9.5
2017-Dec-05 10:00N 59°57' W 001°16'0 0.0 1015.2 9.1
2017-Dec-05 09:00N 59°57' W 001°16'0 0.0 1015.1 9.0
2017-Dec-05 08:00N 59°57' W 001°16'0 0.0 1015.4 9.0
2017-Dec-05 07:00N 59°57' W 001°16'0 0.0 1015.7 9.0
2017-Dec-05 06:00N 59°57' W 001°16'0 0.0 1016.0 8.7
2017-Dec-05 05:00N 59°57' W 001°16'0 0.0 1016.4 8.6
2017-Dec-05 04:00N 59°57' W 001°16'0 0.0 1017.2 8.8
2017-Dec-05 03:00N 59°57' W 001°16'0 0.0 1017.9 8.8
2017-Dec-05 02:00N 59°57' W 001°16'0 0.0 1018.3 8.6
2017-Dec-05 01:00N 59°57' W 001°16'0 0.0 1018.9 8.4
2017-Dec-05 00:00N 59°57' W 001°16'0 0.0 1019.5 8.6
2017-Dec-04 23:00N 59°57' W 001°16'0 0.0 1019.7 8.5
2017-Dec-04 22:00N 59°57' W 001°16'0 0.0 1020.2 8.4
2017-Dec-04 19:00N 59°57' W 001°16'0 0.0 1020.6 7.9
2017-Dec-04 18:00N 59°57' W 001°16'0 0.0 1020.3 7.7
2017-Dec-04 17:00N 59°57' W 001°16'0 0.0 1020.4 7.6
2017-Dec-04 16:00N 59°57' W 001°16'0 0.0 1020.3 7.2
2017-Dec-04 15:00N 59°57' W 001°16'0 0.0 1020.2 7.9
2017-Dec-04 14:00N 59°57' W 001°16'0 0.0 1020.0 8.4
2017-Dec-04 13:00N 59°57' W 001°16'0 0.0 1020.6 8.5
2017-Dec-04 12:00N 59°57' W 001°16'0 0.0 1021.0 8.2
2017-Dec-04 11:00N 59°57' W 001°16'0 0.0 1021.2 8.1
2017-Dec-04 10:00N 59°57' W 001°16'0 0.0 1020.8 7.8
2017-Dec-04 09:00N 59°57' W 001°16'0 0.0 1021.0 8.0
2017-Dec-04 08:00N 59°57' W 001°16'0 0.0 1021.0 8.1
2017-Dec-04 07:00N 59°57' W 001°16'0 0.0 1021.0 7.2
2017-Dec-04 06:00N 59°57' W 001°16'0 0.0 1021.0 7.0
2017-Dec-04 05:00N 59°57' W 001°16'0 0.0 1021.4 6.6
2017-Dec-04 04:00N 59°57' W 001°16'0 0.0 1021.8 6.2
2017-Dec-04 03:00N 59°57' W 001°16'0 0.0 1020.9 4.2
2017-Dec-04 02:00N 59°57' W 001°16'0 0.0 1021.5 4.4
2017-Dec-04 01:00N 59°57' W 001°16'0 0.0 1021.5 4.6
2017-Dec-04 00:00N 59°57' W 001°16'0 0.0 1021.8 4.9
2017-Dec-03 23:00N 59°57' W 001°16'0 0.0 1022.2 4.7
2017-Dec-03 22:00N 59°57' W 001°16'0 0.0 1020.7 4.0
2017-Dec-03 21:00N 59°57' W 001°16'0 0.0 1021.6 4.7
2017-Dec-03 20:00N 59°57' W 001°16'0 0.0 1020.7 3.2
2017-Dec-03 19:00N 59°57' W 001°16'0 0.0 1021.0 4.5
2017-Dec-03 18:00N 59°57' W 001°16'0 0.0 1021.3 4.5
2017-Dec-03 17:00N 59°57' W 001°16'0 0.0 1020.3 3.6
2017-Dec-03 16:00N 59°57' W 001°16'0 0.0 1020.4 4.3
2017-Dec-03 15:00N 59°57' W 001°16'0 0.0 1019.6 3.6
2017-Dec-03 14:00N 59°57' W 001°16'0 0.0 1019.5 4.9
2017-Dec-03 13:00N 59°57' W 001°16'0 0.0 1019.4 6.1
2017-Dec-03 12:00N 59°57' W 001°16'0 0.0 1019.6 6.1
2017-Dec-03 11:00N 59°57' W 001°16'0 0.0 1019.4 4.8
2017-Dec-03 10:00N 59°57' W 001°16'0 0.0 1018.3 5.4
2017-Dec-03 09:00N 59°57' W 001°16'0 0.0 1017.8 5.8
2017-Dec-03 08:00N 59°57' W 001°16'0 0.0 1017.6 5.3
2017-Dec-03 07:00N 59°57' W 001°16'0 0.0 1017.3 6.6
2017-Dec-03 06:00N 59°57' W 001°16'0 0.0 1016.5 5.5
2017-Dec-03 05:00N 59°57' W 001°16'0 0.0 1016.3 5.2
2017-Dec-03 04:00N 59°57' W 001°16'0 0.0 1016.0 5.6
2017-Dec-03 03:00N 59°57' W 001°16'0 0.0 1015.6 5.9
2017-Dec-03 02:00N 59°57' W 001°16'0 0.0 1015.5 5.2
2017-Dec-03 01:00N 59°57' W 001°16'0 0.0 1015.2 4.8
2017-Dec-03 00:00N 59°57' W 001°16'0 0.0 1014.7 4.9
2017-Dec-02 23:00N 59°57' W 001°16'0 0.0 1014.3 5.8
2017-Dec-02 22:00N 59°57' W 001°16'0 0.0 1014.1 6.1
2017-Dec-02 21:00N 59°57' W 001°16'0 0.0 1014.1 6.0
2017-Dec-02 20:00N 59°57' W 001°16'0 0.0 1013.7 6.6
2017-Dec-02 19:00N 59°57' W 001°16'0 0.0 1013.9 7.1
2017-Dec-02 18:00N 59°57' W 001°16'0 0.0 1013.8 7.1
2017-Dec-02 17:00N 59°57' W 001°16'0 0.0 1013.5 7.1
2017-Dec-02 16:00N 59°57' W 001°16'0 0.0 1013.2 7.2
2017-Dec-02 15:00N 59°57' W 001°16'0 0.0 1013.0 7.5
2017-Dec-02 14:00N 59°57' W 001°16'0 0.0 1012.8 7.5
2017-Dec-02 13:00N 59°57' W 001°16'0 0.0 1012.7 7.7
2017-Dec-02 12:00N 59°57' W 001°16'0 0.0 1013.4 8.7
2017-Dec-02 10:00N 59°57' W 001°16'0 0.0 1014.4 8.1
2017-Dec-02 09:00N 59°57' W 001°16'0 0.0 1014.7 8.0
2017-Dec-02 08:00N 59°57' W 001°16'0 0.0 1014.9 7.7
2017-Dec-02 07:00N 59°57' W 001°16'0 0.0 1015.1 7.7
2017-Dec-02 06:00N 59°57' W 001°16'0 0.0 1015.2 7.6
2017-Dec-02 05:00N 59°57' W 001°16'0 0.0 1015.5 7.6
2017-Dec-02 04:00N 59°57' W 001°16'0 0.0 1015.8 7.7
2017-Dec-02 03:00N 59°57' W 001°16'0 0.0 1016.6 8.0
2017-Dec-02 02:00N 59°57' W 001°16'0 0.0 1017.0 7.9
2017-Dec-02 01:00N 59°57' W 001°16'0 0.0 1017.2 7.8
2017-Dec-02 00:00N 59°57' W 001°16'0 0.0 1017.6 7.7
2017-Dec-01 23:00N 59°57' W 001°16'0 0.0 1017.9 7.6
2017-Dec-01 22:00N 59°57' W 001°16'0 0.0 1018.1 7.0
2017-Dec-01 21:00N 59°57' W 001°16'0 0.0 1018.5 6.6
2017-Dec-01 20:00N 59°57' W 001°16'0 0.0 1018.6 6.2
2017-Dec-01 19:00N 59°57' W 001°16'0 0.0 1019.0 6.1
2017-Dec-01 18:00N 59°57' W 001°16'0 0.0 1019.2 5.9
2017-Dec-01 17:00N 59°57' W 001°16'0 0.0 1019.3 6.0
2017-Dec-01 16:00N 59°57' W 001°16'0 0.0 1019.1 5.7
2017-Dec-01 15:00N 59°57' W 001°16'0 0.0 1019.2 5.8
2017-Dec-01 14:00N 59°57' W 001°16'0 0.0 1020.5 5.8
2017-Dec-01 13:00N 59°57' W 001°16'0 0.0 1020.6 4.6
2017-Dec-01 12:00N 59°57' W 001°16'0 0.0 1021.5 3.5
2017-Dec-01 11:00N 59°57' W 001°16'0 0.0 1022.6 3.0
2017-Dec-01 10:00N 59°57' W 001°16'0 0.0 1023.1 2.2
2017-Dec-01 09:00N 59°57' W 001°16'0 0.0 1023.7 1.8
2017-Dec-01 08:00N 59°57' W 001°16'0 0.0 1023.9 1.6
2017-Dec-01 07:00N 59°57' W 001°16'0 0.0 1023.6 1.2
2017-Dec-01 06:00N 59°57' W 001°16'0 0.0 1023.2 0.7
2017-Dec-01 05:00N 59°57' W 001°16'0 0.0 1023.9 0.8
2017-Dec-01 04:00N 59°57' W 001°16'0 0.0 1023.1 0.6
2017-Dec-01 03:00N 59°57' W 001°16'0 0.0 1023.2 0.8
2017-Dec-01 02:00N 59°57' W 001°16'0 0.0 1023.4 1.2
2017-Dec-01 01:00N 59°57' W 001°16'0 0.0 1023.0 1.2
2017-Dec-01 00:00N 59°57' W 001°16'0 0.0 1022.3 1.0
2017-Nov-30 23:00N 59°57' W 001°16'0 0.0 1022.1 1.2
2017-Nov-30 22:00N 59°57' W 001°16'0 0.0 1021.5 1.2
2017-Nov-30 21:00N 59°57' W 001°16'0 0.0 1021.4 1.4
2017-Nov-30 20:00N 59°57' W 001°16'0 0.0 1020.5 1.6
2017-Nov-30 19:00N 59°57' W 001°16'0 0.0 1020.1 1.5
2017-Nov-30 18:00N 59°57' W 001°16'0 0.0 1019.6 1.6
2017-Nov-30 17:00N 59°57' W 001°16'0 0.0 1018.3 1.4
2017-Nov-30 16:00N 59°57' W 001°16'0 0.0 1017.7 1.5
2017-Nov-30 15:00N 59°57' W 001°16'0 0.0 1017.0 1.4
2017-Nov-30 14:00N 59°57' W 001°16'0 0.0 1016.8 1.8
2017-Nov-30 13:00N 59°57' W 001°16'0 0.0 1015.6 1.6
2017-Nov-30 12:00N 59°57' W 001°16'0 0.0 1015.9 1.6
2017-Nov-30 11:00N 59°57' W 001°16'0 0.0 1015.0 1.0
2017-Nov-30 10:00N 59°57' W 001°16'0 0.0 1015.2 1.3
2017-Nov-30 09:00N 59°57' W 001°16'0 0.0 1013.6 0.5
2017-Nov-30 07:00N 59°57' W 001°16'0 0.0 1012.6 0.4
2017-Nov-30 06:00N 59°57' W 001°16'0 0.0 1012.4 0.6
2017-Nov-30 05:00N 59°57' W 001°16'0 0.0 1012.4 0.8
2017-Nov-30 04:00N 59°57' W 001°16'0 0.0 1012.2 0.4
2017-Nov-30 03:00N 59°57' W 001°16'0 0.0 1011.8 0.1
2017-Nov-30 02:00N 59°57' W 001°16'0 0.0 1011.5 -0.2
2017-Nov-30 01:00N 59°57' W 001°16'0 0.0 1012.3 -0.0
2017-Nov-30 00:00N 59°57' W 001°16'0 0.0 1011.7 -0.1
2017-Nov-29 23:00N 59°57' W 001°16'0 0.0 1012.1 -0.0
2017-Nov-29 22:00N 59°57' W 001°16'0 0.0 1012.3 0.1
2017-Nov-29 21:00N 59°57' W 001°16'0 0.0 1012.7 0.5
2017-Nov-29 20:00N 59°57' W 001°16'0 0.0 1012.2 0.4
2017-Nov-29 19:00N 59°57' W 001°16'0 0.0 1011.9 0.3
2017-Nov-29 18:00N 59°57' W 001°16'0 0.0 1012.3 0.6
2017-Nov-29 17:00N 59°57' W 001°16'0 0.0 1012.3 0.9
2017-Nov-29 16:00N 59°57' W 001°16'0 0.0 1012.1 1.0
2017-Nov-29 15:00N 59°57' W 001°16'0 0.0 1012.0 1.3
2017-Nov-29 14:00N 59°57' W 001°16'0 0.0 1012.3 1.5
2017-Nov-29 13:00N 59°57' W 001°16'0 0.0 1012.7 1.8
2017-Nov-29 12:00N 59°57' W 001°16'0 0.0 1012.7 1.4
2017-Nov-29 11:00N 59°57' W 001°16'0 0.0 1013.7 1.4
2017-Nov-29 10:00N 59°57' W 001°16'0 0.0 1013.7 1.3
2017-Nov-29 09:00N 59°57' W 001°16'0 0.0 1013.2 1.0
2017-Nov-29 08:00N 59°57' W 001°16'0 0.0 1012.9 1.1
2017-Nov-29 07:00N 59°57' W 001°16'0 0.0 1012.8 1.3
2017-Nov-29 06:00N 59°57' W 001°16'0 0.0 1013.2 1.1
2017-Nov-29 05:00N 59°57' W 001°16'0 0.0 1013.6 1.6
2017-Nov-29 04:00N 59°57' W 001°16'0 0.0 1013.6 1.5
2017-Nov-29 03:00N 59°57' W 001°16'0 0.0 1013.0 1.6
2017-Nov-29 02:00N 59°57' W 001°16'0 0.0 1013.0 2.0
2017-Nov-29 01:00N 59°57' W 001°16'0 0.0 1013.9 2.5
2017-Nov-29 00:00N 59°57' W 001°16'0 0.0 1013.0 2.2
2017-Nov-28 23:00N 59°57' W 001°16'0 0.0 1012.9 2.6
2017-Nov-28 22:00N 59°57' W 001°16'0 0.0 1012.9 3.1
2017-Nov-28 21:00N 59°57' W 001°16'0 0.0 1012.5 3.1
2017-Nov-28 20:00N 59°57' W 001°16'0 0.0 1012.4 3.1
2017-Nov-28 19:00N 59°57' W 001°16'0 0.0 1011.9 3.2
2017-Nov-28 18:00N 59°57' W 001°16'0 0.0 1011.8 3.3
2017-Nov-28 17:00N 59°57' W 001°16'0 0.0 1011.5 3.1
2017-Nov-28 16:00N 59°57' W 001°16'0 0.0 1011.0 3.4
2017-Nov-28 15:00N 59°57' W 001°16'0 0.0 1010.9 4.1
2017-Nov-28 14:00N 59°57' W 001°16'0 0.0 1010.8 4.0
2017-Nov-28 13:00N 59°57' W 001°16'0 0.0 1010.5 4.0
2017-Nov-28 12:00N 59°57' W 001°16'0 0.0 1010.5 4.4
2017-Nov-28 11:00N 59°57' W 001°16'0 0.0 1009.8 4.1
2017-Nov-28 10:00N 59°57' W 001°16'0 0.0 1009.3 4.1
2017-Nov-28 09:00N 59°57' W 001°16'0 0.0 1009.1 4.8
2017-Nov-28 08:00N 59°57' W 001°16'0 0.0 1008.2 4.2
2017-Nov-28 07:00N 59°57' W 001°16'0 0.0 1007.7 4.3
2017-Nov-28 06:00N 59°57' W 001°16'0 0.0 1006.5 4.1
2017-Nov-28 05:00N 59°57' W 001°16'0 0.0 1006.0 3.9
2017-Nov-28 04:00N 59°57' W 001°16'0 0.0 1005.6 3.7
2017-Nov-28 03:00N 59°57' W 001°16'0 0.0 1005.3 3.4
2017-Nov-28 02:00N 59°57' W 001°16'0 0.0 1005.0 3.2
2017-Nov-28 01:00N 59°57' W 001°16'0 0.0 1004.6 3.4
2017-Nov-28 00:00N 59°57' W 001°16'0 0.0 1004.0 4.0
2017-Nov-27 23:00N 59°57' W 001°16'0 0.0 1003.4 4.0
2017-Nov-27 22:00N 59°57' W 001°16'0 0.0 1002.3 4.0
2017-Nov-27 21:00N 59°57' W 001°16'0 0.0 1001.9 3.0
2017-Nov-27 20:00N 59°57' W 001°16'0 0.0 1001.4 3.0
2017-Nov-27 19:00N 59°57' W 001°16'0 0.0 1001.0 3.3
2017-Nov-27 18:00N 59°57' W 001°16'0 0.0 1000.7 3.5
2017-Nov-27 17:00N 59°57' W 001°16'0 0.0 1000.1 3.8
2017-Nov-27 16:00N 59°57' W 001°16'0 0.0 999.7 3.6
2017-Nov-27 15:00N 59°57' W 001°16'0 0.0 999.1 4.2
2017-Nov-27 14:00N 59°57' W 001°16'0 0.0 998.4 4.2
2017-Nov-27 13:00N 59°57' W 001°16'0 0.0 997.7 4.8
2017-Nov-27 12:00N 59°57' W 001°16'0 0.0 997.1 5.2
2017-Nov-27 11:00N 59°57' W 001°16'0 0.0 996.8 4.6
2017-Nov-27 10:00N 59°57' W 001°16'0 0.0 996.4 4.7
2017-Nov-27 09:00N 59°57' W 001°16'0 0.0 996.3 4.5
2017-Nov-27 08:00N 59°57' W 001°16'0 0.0 996.4 4.5
2017-Nov-27 07:00N 59°57' W 001°16'0 0.0 996.3 4.4
2017-Nov-27 06:00N 59°57' W 001°16'0 0.0 996.5 4.3
2017-Nov-27 05:00N 59°57' W 001°16'0 0.0 997.4 3.8
2017-Nov-27 04:00N 59°57' W 001°16'0 0.0 998.4 3.1
2017-Nov-27 03:00N 59°57' W 001°16'0 0.0 999.7 2.7
2017-Nov-27 02:00N 59°57' W 001°16'0 0.0 1000.7 2.6
2017-Nov-27 01:00N 59°57' W 001°16'0 0.0 1001.9 2.1
2017-Nov-27 00:00N 59°57' W 001°16'0 0.0 1002.8 2.0
2017-Nov-26 23:00N 59°57' W 001°16'0 0.0 1003.8 1.8
2017-Nov-26 22:00N 59°57' W 001°16'0 0.0 1004.8 1.9
2017-Nov-26 21:00N 59°57' W 001°16'0 0.0 1005.9 2.7
2017-Nov-26 20:00N 59°57' W 001°16'0 0.0 1006.7 3.3
2017-Nov-26 19:00N 59°57' W 001°16'0 0.0 1007.1 3.0
2017-Nov-26 18:00N 59°57' W 001°16'0 0.0 1007.7 3.9
2017-Nov-26 17:00N 59°57' W 001°16'0 0.0 1008.0 4.0
2017-Nov-26 16:00N 59°57' W 001°16'0 0.0 1008.1 4.6
2017-Nov-26 15:00N 59°57' W 001°16'0 0.0 1008.0 4.8
2017-Nov-26 14:00N 59°57' W 001°16'0 0.0 1007.8 5.4
2017-Nov-26 13:00N 59°57' W 001°16'0 0.0 1007.7 5.9
2017-Nov-26 12:00N 59°57' W 001°16'0 0.0 1007.3 5.5
2017-Nov-26 11:00N 59°57' W 001°16'0 0.0 1006.6 5.5
2017-Nov-26 10:00N 59°57' W 001°16'0 0.0 1006.0 5.7
2017-Nov-26 09:00N 59°57' W 001°16'0 0.0 1005.2 5.8
2017-Nov-26 08:00N 59°57' W 001°16'0 0.0 1004.5 5.7
2017-Nov-26 07:00N 59°57' W 001°16'0 0.0 1003.9 6.1
2017-Nov-26 06:00N 59°57' W 001°16'0 0.0 1002.9 6.0
2017-Nov-26 05:00N 59°57' W 001°16'0 0.0 1002.3 6.0
2017-Nov-26 04:00N 59°57' W 001°16'0 0.0 1001.5 5.9
2017-Nov-26 03:00N 59°57' W 001°16'0 0.0 1001.1 6.0
2017-Nov-26 02:00N 59°57' W 001°16'0 0.0 1000.5 6.0
2017-Nov-26 01:00N 59°57' W 001°16'0 0.0 999.8 6.0
2017-Nov-26 00:00N 59°57' W 001°16'0 0.0 999.3 6.1
2017-Nov-25 23:00N 59°57' W 001°16'0 0.0 998.9 5.7
2017-Nov-25 22:00N 59°57' W 001°16'0 0.0 998.4 5.8
2017-Nov-25 21:00N 59°57' W 001°16'0 0.0 998.4 5.3
2017-Nov-25 20:00N 59°57' W 001°16'0 0.0 998.5 5.5
2017-Nov-25 19:00N 59°57' W 001°16'0 0.0 998.4 5.5
2017-Nov-25 18:00N 59°57' W 001°16'0 0.0 997.5 5.3
2017-Nov-25 17:00N 59°57' W 001°16'   996.6 5.4

Dump ship's entire track history